Time;durP1;ratioP1;P1;durP2;ratioP2;P2;SDS_P1;SDS_P2;PMS_P1;PMS_P2;Temp;Humidity;BMP_temperature;BMP_pressure;BME280_temperature;BME280_humidity;BME280_pressure;Samples;Min_cycle;Max_cycle;Signal;HPM_P1;HPM_P2
2023/07/26 00:00:37;;;;;;;;;;;;;;;19.61;89.10;98313.03;6172521;23;19927;-94
2023/07/26 00:03:03;;;;;;;;;;;;;;;19.61;89.29;98306.72;6174812;23;19930;-94
2023/07/26 00:05:30;;;;;;;;;;;;;;;19.58;89.16;98316.63;6195493;23;19919;-95
2023/07/26 00:07:56;;;;;;;;;;;;;;;19.56;88.73;98316.19;6170005;23;19998;-94
2023/07/26 00:10:21;;;;;;;;;;;;;;;19.53;88.60;98319.78;6195212;23;19958;-94
2023/07/26 00:12:47;;;;;;;;;;;;;;;19.52;88.64;98320.19;6170344;23;20345;-94
2023/07/26 00:15:13;;;;;;;;;;;;;;;19.50;88.56;98320.56;6170640;23;20023;-94
2023/07/26 00:17:39;;;;;;;;;;;;;;;19.46;88.62;98323.34;6195479;23;19919;-94
2023/07/26 00:20:05;;;;;;;;;;;;;;;19.46;88.46;98317.00;6195623;23;19965;-94
2023/07/26 00:22:31;;;;;;;;;;;;;;;19.44;88.82;98311.09;6170792;23;20010;-96
2023/07/26 00:24:59;;;;;;;;;;;;;;;19.43;88.81;98321.34;6222054;23;19950;-94
2023/07/26 00:27:26;;;;;;;;;;;;;;;19.41;89.07;98315.44;6172007;23;19927;-94
2023/07/26 00:29:52;;;;;;;;;;;;;;;19.35;89.13;98305.94;6171793;23;19946;-94
2023/07/26 00:32:19;;;;;;;;;;;;;;;19.37;89.76;98313.84;6196752;23;19919;-94
2023/07/26 00:34:45;;;;;;;;;;;;;;;19.38;89.25;98307.91;6197163;23;20337;-96
2023/07/26 00:37:16;;;;;;;;;;;;;;;19.36;89.43;98296.41;6197663;23;20042;-95
2023/07/26 00:39:43;;;;;;;;;;;;;;;19.36;89.19;98295.63;6222817;23;19920;-95
2023/07/26 00:42:11;;;;;;;;;;;;;;;19.31;89.49;98285.75;6173609;23;19915;-95
2023/07/26 00:44:43;;;;;;;;;;;;;;;19.32;89.23;98289.31;6173158;23;20298;-95
2023/07/26 00:47:10;;;;;;;;;;;;;;;19.32;89.52;98283.75;6173385;23;20318;-95
2023/07/26 00:49:36;;;;;;;;;;;;;;;19.25;89.24;98276.25;6221964;23;19919;-95
2023/07/26 00:52:13;;;;;;;;;;;;;;;19.25;89.47;98288.13;6200310;23;19955;-95
2023/07/26 00:54:45;;;;;;;;;;;;;;;19.24;89.48;98288.53;6204558;23;19926;-95
2023/07/26 00:57:16;;;;;;;;;;;;;;;19.19;89.25;98281.38;6199922;23;19927;-94
2023/07/26 00:59:42;;;;;;;;;;;;;;;19.17;88.89;98283.78;6171498;23;19927;-94
2023/07/26 01:02:11;;;;;;;;;;;;;;;19.16;89.24;98281.38;6167697;23;19924;-96
2023/07/26 01:04:40;;;;;;;;;;;;;;;19.12;89.98;98286.13;6187045;23;20003;-94
2023/07/26 01:07:14;;;;;;;;;;;;;;;19.16;90.91;98284.16;6165665;23;19973;-95
2023/07/26 01:10:16;;;;;;;;;;;;;;;19.21;90.97;98283.78;6216383;23;19919;-94
2023/07/26 01:12:57;;;;;;;;;;;;;;;19.25;90.15;98271.50;6155731;23;19921;-95
2023/07/26 01:15:30;;;;;;;;;;;;;;;19.25;90.31;98270.72;6210855;23;20417;-94
2023/07/26 01:18:09;;;;;;;;;;;;;;;19.27;90.43;98257.25;6191955;23;19920;-94
2023/07/26 01:20:38;;;;;;;;;;;;;;;19.24;89.86;98266.38;6166802;23;20006;-94
2023/07/26 01:23:04;;;;;;;;;;;;;;;19.19;89.91;98261.22;6191494;23;19924;-94
2023/07/26 01:25:32;;;;;;;;;;;;;;;19.20;90.28;98260.00;6216120;23;19983;-94
2023/07/26 01:28:01;;;;;;;;;;;;;;;19.20;90.78;98260.81;6191540;23;19920;-94
2023/07/26 01:30:33;;;;;;;;;;;;;;;19.17;90.38;98255.25;6192829;23;19922;-95
2023/07/26 01:33:08;;;;;;;;;;;;;;;19.15;90.91;98252.09;6193200;23;19919;-95
2023/07/26 01:35:39;;;;;;;;;;;;;;;19.16;90.53;98250.91;6166846;23;20527;-94
2023/07/26 01:38:12;;;;;;;;;;;;;;;19.16;90.47;98254.47;6167181;23;19919;-95
2023/07/26 01:40:38;;;;;;;;;;;;;;;19.17;90.42;98250.53;6166000;23;19915;-94
2023/07/26 01:43:04;;;;;;;;;;;;;;;19.15;90.27;98257.66;6241457;23;19924;-94
2023/07/26 01:45:30;;;;;;;;;;;;;;;19.12;90.46;98262.00;6190934;23;19920;-94
2023/07/26 01:47:56;;;;;;;;;;;;;;;19.14;90.27;98264.34;6165753;23;19920;-94
2023/07/26 01:50:25;;;;;;;;;;;;;;;19.12;89.87;98261.22;6166682;23;19920;-94
2023/07/26 01:52:53;;;;;;;;;;;;;;;19.12;90.36;98266.75;6191174;23;19920;-95
2023/07/26 01:55:21;;;;;;;;;;;;;;;19.14;90.56;98262.41;6167652;23;19974;-95
2023/07/26 01:57:47;;;;;;;;;;;;;;;19.15;90.44;98252.91;6217017;23;19919;-95
2023/07/26 02:00:14;;;;;;;;;;;;;;;19.13;90.05;98255.25;6190905;23;20270;-95
2023/07/26 02:02:45;;;;;;;;;;;;;;;19.14;90.63;98258.81;6222211;23;19923;-95
2023/07/26 02:05:20;;;;;;;;;;;;;;;19.13;89.98;98251.69;6171988;23;20001;-95
2023/07/26 02:07:51;;;;;;;;;;;;;;;19.13;90.18;98248.94;6174686;23;19919;-95
2023/07/26 02:10:20;;;;;;;;;;;;;;;19.15;90.25;98263.97;6172618;23;19945;-95
2023/07/26 02:12:56;;;;;;;;;;;;;;;19.18;90.32;98254.09;6198725;23;19923;-96
2023/07/26 02:15:25;;;;;;;;;;;;;;;19.18;90.06;98240.25;6172482;23;19919;-95
2023/07/26 02:20:46;;;;;;;;;;;;;;;19.23;90.50;98248.13;6135673;23;19932;-95
2023/07/26 02:23:12;;;;;;;;;;;;;;;19.24;90.52;98246.97;6111022;23;19927;-95
2023/07/26 02:25:40;;;;;;;;;;;;;;;19.27;90.25;98253.66;6135034;23;19920;-95
2023/07/26 02:28:28;;;;;;;;;;;;;;;19.29;90.36;98254.06;6111467;23;19928;-96
2023/07/26 02:31:02;;;;;;;;;;;;;;;19.30;90.80;98253.66;6135416;23;20337;-96
2023/07/26 02:33:56;;;;;;;;;;;;;;;19.35;90.64;98258.81;6114158;23;20524;-96
2023/07/26 02:36:32;;;;;;;;;;;;;;;19.38;90.55;98255.25;6113159;23;19921;-96
2023/07/26 02:38:59;;;;;;;;;;;;;;;19.43;90.67;98260.38;6111803;23;19920;-96
2023/07/26 02:41:30;;;;;;;;;;;;;;;19.47;91.32;98257.63;6138378;23;19924;-96
2023/07/26 02:44:13;;;;;;;;;;;;;;;19.48;90.96;98257.22;6133864;23;20046;-93
2023/07/26 02:47:04;;;;;;;;;;;;;;;19.51;90.81;98261.19;6177719;23;20389;-93
2023/07/26 02:50:20;;;;;;;;;;;;;;;19.57;90.61;98258.78;6155346;23;19920;-95
2023/07/26 02:53:58;;;;;;;;;;;;;;;19.63;90.40;98254.41;6231840;23;19982;-94
2023/07/26 03:01:13;;;;;;;;;;;;;;;19.71;90.63;98251.28;6011660;23;19929;-96
2023/07/26 03:04:37;;;;;;;;;;;;;;;19.77;90.30;98251.66;6012974;23;19922;-96
2023/07/26 03:07:40;;;;;;;;;;;;;;;19.84;90.75;98256.41;5930310;23;20382;-96
2023/07/26 03:10:09;;;;;;;;;;;;;;;19.87;89.79;98261.94;5990884;23;19929;-96
2023/07/26 03:12:38;;;;;;;;;;;;;;;19.90;89.89;98261.13;5966406;23;19997;-95
2023/07/26 03:15:07;;;;;;;;;;;;;;;19.95;89.62;98257.91;5991135;23;19962;-96
2023/07/26 03:17:36;;;;;;;;;;;;;;;19.99;89.60;98265.44;5992114;23;19929;-96
2023/07/26 03:20:05;;;;;;;;;;;;;;;20.00;89.79;98269.78;5968191;23;19965;-96
2023/07/26 03:22:43;;;;;;;;;;;;;;;20.03;89.61;98269.78;5990283;23;20377;-96
2023/07/26 03:25:13;;;;;;;;;;;;;;;20.08;89.25;98263.81;5990954;23;19928;-96
2023/07/26 03:27:45;;;;;;;;;;;;;;;20.09;89.26;98265.41;5967749;23;19922;-96
2023/07/26 03:30:17;;;;;;;;;;;;;;;20.12;89.51;98259.03;5990063;23;19922;-96
2023/07/26 03:32:54;;;;;;;;;;;;;;;20.16;89.25;98250.69;5986627;23;19975;-96
2023/07/26 03:35:23;;;;;;;;;;;;;;;20.24;89.23;98248.72;6054574;23;19929;-96
2023/07/26 03:38:03;;;;;;;;;;;;;;;;;;;;;
2023/07/26 03:41:54;;;;;;;;;;;;;;;;;;;;;
2023/07/26 03:44:59;;;;;;;;;;;;;;;20.40;87.98;98255.34;6202963;23;20011;-96
2023/07/26 03:55:38;;;;;;;;;;;;;;;20.56;88.28;98240.22;6170841;23;19927;-95
2023/07/26 04:01:57;;;;;;;;;;;;;;;20.69;88.26;98219.09;6137358;23;19924;-96
2023/07/26 04:04:57;;;;;;;;;;;;;;;20.73;86.81;98224.63;6113518;23;19976;-96
2023/07/26 04:08:15;;;;;;;;;;;;;;;20.80;87.03;98221.84;6093390;23;19925;-96
2023/07/26 04:28:01;;;;;;;;;;;;;;;21.14;85.49;98194.16;6338022;22;19923;-96
2023/07/26 04:51:29;;;;;;;;;;;;;;;21.73;82.28;98182.84;6307139;22;19942;-96
2023/07/26 05:03:31;;;;;;;;;;;;;;;22.06;80.50;98186.00;6337503;22;19903;-96
2023/07/26 05:06:33;;;;;;;;;;;;;;;22.15;80.24;98175.19;6253484;22;19908;-96
2023/07/26 05:13:51;;;;;;;;;;;;;;;22.41;78.69;98164.47;6153435;23;19959;-96
2023/07/26 05:16:19;;;;;;;;;;;;;;;22.54;78.80;98162.69;6097956;23;19925;-96
2023/07/26 05:18:57;;;;;;;;;;;;;;;22.67;78.69;98168.44;6073492;23;19909;-96
2023/07/26 05:26:04;;;;;;;;;;;;;;;22.85;76.77;98146.66;6123005;23;19960;-96
2023/07/26 05:28:33;;;;;;;;;;;;;;;22.94;77.45;98148.94;6096703;23;19932;-96
2023/07/26 05:31:03;;;;;;;;;;;;;;;23.00;76.75;98144.44;6096334;23;19945;-96
2023/07/26 05:33:35;;;;;;;;;;;;;;;22.96;75.21;98138.94;6099175;23;19936;-94
2023/07/26 05:36:01;;;;;;;;;;;;;;;23.03;75.54;98140.81;6124014;23;19901;-96
2023/07/26 05:38:35;;;;;;;;;;;;;;;23.08;75.80;98142.31;6124339;23;19924;-95
2023/07/26 05:41:41;;;;;;;;;;;;;;;23.13;76.68;98150.97;6104295;23;19905;-94
2023/07/26 05:45:49;;;;;;;;;;;;;;;23.16;76.62;98146.56;6153702;23;19912;-91
2023/07/26 05:48:37;;;;;;;;;;;;;;;23.11;76.27;98141.47;6182274;23;19905;-93
2023/07/26 05:51:38;;;;;;;;;;;;;;;23.24;75.78;98141.63;6134353;23;19924;-94
2023/07/26 05:58:44;;;;;;;;;;;;;;;23.37;74.40;98145.34;6213241;23;19911;-94
2023/07/26 06:05:15;;;;;;;;;;;;;;;23.50;74.87;98142.72;6203062;23;19931;-95
2023/07/26 06:07:49;;;;;;;;;;;;;;;23.62;75.00;98151.25;6211507;23;19900;-96
2023/07/26 06:10:43;;;;;;;;;;;;;;;23.59;73.11;98138.16;6210470;23;19999;-93
2023/07/26 06:13:12;;;;;;;;;;;;;;;23.72;73.50;98140.34;6190024;23;19927;-94
2023/07/26 06:15:56;;;;;;;;;;;;;;;23.79;72.65;98140.19;6252520;22;19930;-94
2023/07/26 06:18:23;;;;;;;;;;;;;;;23.84;72.51;98148.84;6216603;22;19927;-93
2023/07/26 06:21:11;;;;;;;;;;;;;;;23.94;72.39;98146.25;6243896;23;19931;-92
2023/07/26 06:24:05;;;;;;;;;;;;;;;24.08;72.04;98134.78;6263125;23;19915;-92
2023/07/26 06:27:15;;;;;;;;;;;;;;;24.16;71.84;98130.59;6242444;23;19900;-94
2023/07/26 06:31:03;;;;;;;;;;;;;;;24.22;71.72;98130.88;6151084;23;19925;-93
2023/07/26 06:34:03;;;;;;;;;;;;;;;24.30;70.71;98112.72;6100891;23;20028;-94
2023/07/26 06:36:34;;;;;;;;;;;;;;;24.35;71.51;98110.22;6055599;23;19906;-94
2023/07/26 06:39:27;;;;;;;;;;;;;;;24.43;71.10;98102.47;6067014;23;19928;-94
2023/07/26 06:42:32;;;;;;;;;;;;;;;24.57;71.06;98101.34;6140152;23;19921;-93
2023/07/26 06:45:43;;;;;;;;;;;;;;;24.66;69.91;98095.91;6063938;23;19926;-90
2023/07/26 06:52:20;;;;;;;;;;;;;;;25.02;65.63;98083.81;6049848;23;19925;-83
2023/07/26 06:54:45;;;;;;;;;;;;;;;25.40;64.54;98080.44;6039725;23;19926;-80
2023/07/26 06:57:11;;;;;;;;;;;;;;;25.68;63.44;98081.59;6062351;23;20345;-81
2023/07/26 06:59:37;;;;;;;;;;;;;;;25.81;62.73;98067.66;6089747;23;20348;-82
2023/07/26 07:02:06;;;;;;;;;;;;;;;25.93;62.11;98072.50;6108983;23;19916;-79
2023/07/26 07:04:35;;;;;;;;;;;;;;;26.00;61.33;98061.84;6118611;23;19921;-83
2023/07/26 07:07:00;;;;;;;;;;;;;;;26.01;62.97;98059.81;6160504;23;19994;-85
2023/07/26 07:09:28;;;;;;;;;;;;;;;26.16;61.69;98068.59;6207051;23;20465;-84
2023/07/26 07:11:54;;;;;;;;;;;;;;;26.34;61.63;98062.38;6208708;23;19919;-84
2023/07/26 07:14:23;;;;;;;;;;;;;;;26.50;61.35;98053.88;6253578;22;19965;-85
2023/07/26 07:16:48;;;;;;;;;;;;;;;26.62;61.44;98061.50;6273482;22;20276;-87
2023/07/26 07:19:14;;;;;;;;;;;;;;;26.73;60.71;98055.50;6275548;22;19942;-85
2023/07/26 07:21:41;;;;;;;;;;;;;;;26.69;60.87;98060.47;6273234;22;19919;-80
2023/07/26 07:24:07;;;;;;;;;;;;;;;26.69;60.71;98055.63;6275178;22;19950;-82
2023/07/26 07:26:32;;;;;;;;;;;;;;;26.76;59.96;98054.59;6274268;22;19919;-83
2023/07/26 07:28:58;;;;;;;;;;;;;;;26.83;60.80;98045.16;6275527;22;19919;-81
2023/07/26 07:31:24;;;;;;;;;;;;;;;26.77;60.55;98052.59;6275369;22;19920;-81
2023/07/26 07:33:49;;;;;;;;;;;;;;;26.94;60.47;98049.16;6273211;22;19919;-81
2023/07/26 07:36:18;;;;;;;;;;;;;;;27.10;60.03;98042.59;6275667;22;19919;-82
2023/07/26 07:38:44;;;;;;;;;;;;;;;27.22;58.86;98049.41;6274976;22;19990;-81
2023/07/26 07:41:11;;;;;;;;;;;;;;;27.32;58.50;98045.44;6197595;22;20340;-82
2023/07/26 07:43:38;;;;;;;;;;;;;;;27.35;58.57;98043.72;6273730;22;19990;-81
2023/07/26 07:46:04;;;;;;;;;;;;;;;27.41;59.03;98039.84;6273996;22;19919;-82
2023/07/26 07:48:31;;;;;;;;;;;;;;;27.38;58.73;98040.81;6275306;22;20399;-81
2023/07/26 07:50:57;;;;;;;;;;;;;;;27.46;58.45;98043.34;6273412;22;19938;-80
2023/07/26 07:53:23;;;;;;;;;;;;;;;27.49;58.36;98039.63;6275078;22;19942;-80
2023/07/26 07:55:49;;;;;;;;;;;;;;;27.51;58.44;98037.13;6273795;22;20260;-81
2023/07/26 07:58:15;;;;;;;;;;;;;;;27.56;58.47;98042.91;6274909;22;19924;-81
2023/07/26 08:00:40;;;;;;;;;;;;;;;27.58;58.62;98040.44;6274867;22;20360;-81
2023/07/26 08:03:06;;;;;;;;;;;;;;;27.60;58.78;98042.78;6274763;22;20329;-82
2023/07/26 08:05:34;;;;;;;;;;;;;;;27.58;59.12;98048.88;6273583;22;19919;-81
2023/07/26 08:08:00;;;;;;;;;;;;;;;27.48;59.04;98038.03;6274807;22;20369;-82
2023/07/26 08:10:25;;;;;;;;;;;;;;;27.33;59.03;98047.00;6274055;22;19982;-82
2023/07/26 08:12:51;;;;;;;;;;;;;;;27.48;58.85;98043.63;6275175;22;19915;-82
2023/07/26 08:15:17;;;;;;;;;;;;;;;27.48;59.10;98044.41;6275162;22;19923;-82
2023/07/26 08:17:43;;;;;;;;;;;;;;;27.56;58.87;98042.16;6273407;22;20269;-82
2023/07/26 08:20:11;;;;;;;;;;;;;;;27.64;59.31;98038.59;6273049;22;20345;-82
2023/07/26 08:22:37;;;;;;;;;;;;;;;27.64;58.96;98044.22;6274941;22;19945;-82
2023/07/26 08:25:03;;;;;;;;;;;;;;;27.61;58.81;98050.75;6273241;22;19919;-82
2023/07/26 08:27:29;;;;;;;;;;;;;;;27.58;58.77;98050.88;6273032;22;19919;-82
2023/07/26 08:29:55;;;;;;;;;;;;;;;27.59;58.86;98049.66;6273068;22;19919;-82
2023/07/26 08:32:21;;;;;;;;;;;;;;;27.60;58.45;98048.41;6273371;22;19926;-82
2023/07/26 08:34:46;;;;;;;;;;;;;;;27.62;58.44;98041.09;6273569;22;19919;-83
2023/07/26 08:37:12;;;;;;;;;;;;;;;27.52;58.83;98047.91;6275051;22;20349;-82
2023/07/26 08:39:38;;;;;;;;;;;;;;;27.50;58.64;98041.94;6275079;22;19923;-82
2023/07/26 08:42:04;;;;;;;;;;;;;;;27.36;59.14;98043.28;6274884;22;19920;-83
2023/07/26 08:44:30;;;;;;;;;;;;;;;27.25;59.72;98037.28;6275173;22;19926;-82
2023/07/26 08:46:56;;;;;;;;;;;;;;;27.33;59.74;98044.19;6276877;22;19919;-83
2023/07/26 08:49:22;;;;;;;;;;;;;;;27.41;59.63;98037.06;6275737;22;19946;-82
2023/07/26 08:51:49;;;;;;;;;;;;;;;27.35;60.05;98033.28;6276915;22;19926;-82
2023/07/26 08:54:15;;;;;;;;;;;;;;;27.43;60.14;98019.00;6277031;22;19926;-83
2023/07/26 08:56:40;;;;;;;;;;;;;;;27.47;60.24;98008.41;6274540;22;19926;-83
2023/07/26 08:59:07;;;;;;;;;;;;;;;27.55;59.72;97993.66;6276166;22;19919;-82
2023/07/26 09:01:33;;;;;;;;;;;;;;;27.60;59.40;97979.00;6277014;22;19943;-83
2023/07/26 09:03:59;;;;;;;;;;;;;;;27.38;60.10;97965.03;6274555;22;19919;-83
2023/07/26 09:06:24;;;;;;;;;;;;;;;27.49;59.55;97966.63;6275107;22;19926;-82
2023/07/26 09:08:51;;;;;;;;;;;;;;;27.40;59.85;97961.75;6276617;22;20270;-82
2023/07/26 09:11:23;;;;;;;;;;;;;;;27.48;59.39;97963.03;6276506;22;19919;-81
2023/07/26 09:13:52;;;;;;;;;;;;;;;27.41;59.27;97952.84;6276344;22;19919;-82
2023/07/26 09:16:18;;;;;;;;;;;;;;;27.39;59.48;97938.53;6276613;22;19926;-83
2023/07/26 09:18:58;;;;;;;;;;;;;;;27.40;59.06;97936.50;6275092;22;19920;-81
2023/07/26 09:21:28;;;;;;;;;;;;;;;27.41;59.41;97943.66;6274917;22;19919;-83
2023/07/26 09:23:55;;;;;;;;;;;;;;;27.28;59.42;97940.16;6276710;22;20337;-82
2023/07/26 09:26:41;;;;;;;;;;;;;;;27.34;59.29;97941.91;6276872;22;20010;-83
2023/07/26 09:29:11;;;;;;;;;;;;;;;27.16;60.02;97937.00;6276143;22;19976;-82
2023/07/26 09:31:41;;;;;;;;;;;;;;;27.26;59.75;97935.03;6274642;22;19919;-82
2023/07/26 09:34:12;;;;;;;;;;;;;;;27.11;60.79;97933.97;6276776;22;19965;-82
2023/07/26 09:36:41;;;;;;;;;;;;;;;27.00;61.06;97937.19;6276295;22;19923;-82
2023/07/26 09:39:08;;;;;;;;;;;;;;;26.96;62.33;97933.72;6276283;22;19949;-81
2023/07/26 09:41:34;;;;;;;;;;;;;;;26.71;61.06;97929.03;6276723;22;19919;-82
2023/07/26 09:44:00;;;;;;;;;;;;;;;26.66;61.38;97935.22;6276227;22;19997;-82
2023/07/26 09:46:25;;;;;;;;;;;;;;;26.66;61.86;97929.63;6276703;22;19926;-83
2023/07/26 09:48:58;;;;;;;;;;;;;;;26.66;61.58;97921.22;6276308;22;19965;-82
2023/07/26 09:51:25;;;;;;;;;;;;;;;26.65;62.41;97920.41;6274751;22;19926;-85
2023/07/26 09:53:59;;;;;;;;;;;;;;;26.52;64.68;97928.09;6276294;22;19919;-82
2023/07/26 09:56:31;;;;;;;;;;;;;;;26.45;65.36;97929.09;6274756;22;19958;-85
2023/07/26 09:58:57;;;;;;;;;;;;;;;26.40;65.26;97926.09;6276371;22;19954;-83
2023/07/26 10:01:25;;;;;;;;;;;;;;;26.40;65.56;97918.47;6276362;22;20326;-87
2023/07/26 10:03:53;;;;;;;;;;;;;;;26.48;67.00;97910.63;6274585;22;19919;-85
2023/07/26 10:06:20;;;;;;;;;;;;;;;26.47;65.54;97915.44;6274782;22;19941;-81
2023/07/26 10:08:46;;;;;;;;;;;;;;;26.52;66.98;97904.88;6274127;22;19919;-82
2023/07/26 10:11:13;;;;;;;;;;;;;;;26.50;65.90;97913.75;6275773;22;19973;-80
2023/07/26 10:13:41;;;;;;;;;;;;;;;26.59;66.90;97913.84;6274668;22;19923;-81
2023/07/26 10:16:08;;;;;;;;;;;;;;;26.50;68.06;97916.56;6276122;22;19923;-82
2023/07/26 10:18:34;;;;;;;;;;;;;;;26.43;67.01;97919.59;6275871;22;19919;-81
2023/07/26 10:21:04;;;;;;;;;;;;;;;26.39;65.63;97916.91;6275826;22;20238;-83
2023/07/26 10:23:30;;;;;;;;;;;;;;;26.35;67.21;97910.63;6276195;22;19919;-84
2023/07/26 10:25:57;;;;;;;;;;;;;;;26.35;67.92;97919.03;6274219;22;20293;-80
2023/07/26 10:28:24;;;;;;;;;;;;;;;26.26;66.40;97927.38;6275542;22;19923;-82
2023/07/26 10:30:51;;;;;;;;;;;;;;;26.21;66.94;97922.34;6275449;22;20285;-81
2023/07/26 10:33:17;;;;;;;;;;;;;;;26.15;67.32;97927.72;6275505;22;19919;-81
2023/07/26 10:35:45;;;;;;;;;;;;;;;26.10;66.89;97919.13;6275786;22;20364;-81
2023/07/26 10:38:15;;;;;;;;;;;;;;;26.06;66.36;97908.06;6275787;22;19919;-80
2023/07/26 10:40:41;;;;;;;;;;;;;;;26.07;66.20;97908.84;6275980;22;19925;-80
2023/07/26 10:43:19;;;;;;;;;;;;;;;26.06;66.20;97893.25;6273986;22;20276;-80
2023/07/26 10:45:45;;;;;;;;;;;;;;;26.11;66.10;97884.28;6275889;22;20010;-80
2023/07/26 10:48:12;;;;;;;;;;;;;;;26.16;66.51;97867.69;6275470;22;20338;-82
2023/07/26 10:50:38;;;;;;;;;;;;;;;26.25;65.75;97869.78;6275335;22;20369;-82
2023/07/26 10:53:23;;;;;;;;;;;;;;;26.05;70.63;97867.28;6273628;22;19919;-82
2023/07/26 10:55:55;;;;;;;;;;;;;;;26.04;71.33;97856.53;6275194;22;19998;-81
2023/07/26 10:58:21;;;;;;;;;;;;;;;25.95;71.13;97843.22;6273365;22;20289;-80
2023/07/26 11:00:46;;;;;;;;;;;;;;;25.83;70.76;97836.44;6274336;22;19919;-83
2023/07/26 11:03:12;;;;;;;;;;;;;;;25.61;72.12;97844.72;6275348;22;20363;-79
2023/07/26 11:05:39;;;;;;;;;;;;;;;25.62;71.50;97873.50;6275778;22;20249;-81
2023/07/26 11:08:07;;;;;;;;;;;;;;;25.28;74.31;97875.75;6273605;22;19941;-91
2023/07/26 11:10:34;;;;;;;;;;;;;;;24.73;74.52;97879.78;6251208;22;20242;-92
2023/07/26 11:13:11;;;;;;;;;;;;;;;24.31;75.06;97868.56;6251444;22;20341;-92
2023/07/26 11:15:38;;;;;;;;;;;;;;;24.12;76.18;97862.66;6249668;22;19919;-90
2023/07/26 11:18:05;;;;;;;;;;;;;;;23.88;76.95;97859.31;6274866;22;19919;-85
2023/07/26 11:20:31;;;;;;;;;;;;;;;23.78;79.12;97865.94;6274215;22;19992;-92
2023/07/26 11:22:57;;;;;;;;;;;;;;;23.65;80.35;97863.03;6224800;22;19919;-90
2023/07/26 11:25:25;;;;;;;;;;;;;;;23.58;81.15;97865.22;6249675;22;19919;-90
2023/07/26 11:27:51;;;;;;;;;;;;;;;23.48;81.49;97853.09;6223852;22;19919;-91
2023/07/26 11:30:22;;;;;;;;;;;;;;;23.42;82.98;97849.28;6249761;22;19965;-89
2023/07/26 11:32:49;;;;;;;;;;;;;;;23.35;82.68;97855.81;6276358;22;19923;-89
2023/07/26 11:35:19;;;;;;;;;;;;;;;23.30;83.47;97852.72;6222009;22;19941;-89
2023/07/26 11:37:54;;;;;;;;;;;;;;;23.26;83.57;97860.41;6222538;22;19920;-92
2023/07/26 11:40:20;;;;;;;;;;;;;;;23.14;83.60;97864.63;6222425;22;19922;-90
2023/07/26 11:42:46;;;;;;;;;;;;;;;23.09;84.07;97857.59;6222795;22;19923;-92
2023/07/26 11:45:16;;;;;;;;;;;;;;;23.13;84.11;97866.66;6221339;22;19997;-90
2023/07/26 11:48:11;;;;;;;;;;;;;;;23.04;84.35;97877.59;6248966;22;19919;-93
2023/07/26 11:50:40;;;;;;;;;;;;;;;22.86;84.69;97872.38;6277861;22;19990;-92
2023/07/26 11:53:26;;;;;;;;;;;;;;;22.87;85.52;97910.16;6227200;22;19973;-93
2023/07/26 11:56:01;;;;;;;;;;;;;;;22.84;85.63;97919.38;6274179;22;19923;-91
2023/07/26 11:58:33;;;;;;;;;;;;;;;22.83;86.23;97926.19;6249070;22;19919;-90
2023/07/26 12:00:59;;;;;;;;;;;;;;;22.82;86.68;97930.19;6273357;22;19923;-87
2023/07/26 12:03:27;;;;;;;;;;;;;;;22.86;87.24;97930.91;6273445;22;20379;-92
2023/07/26 12:05:53;;;;;;;;;;;;;;;22.88;87.05;97927.66;6274718;22;19919;-90
2023/07/26 12:12:28;;;;;;;;;;;;;;;23.03;85.71;97925.41;6308972;22;19938;-95
2023/07/26 12:18:50;;;;;;;;;;;;;;;23.53;84.91;97905.56;6065341;23;19964;-92
2023/07/26 12:21:16;;;;;;;;;;;;;;;23.76;84.83;97907.44;6019500;23;20015;-91
2023/07/26 12:27:11;;;;;;;;;;;;;;;24.20;83.34;97898.75;6064417;23;19921;-89
2023/07/26 12:29:39;;;;;;;;;;;;;;;24.47;81.62;97892.88;6041279;23;20348;-91
2023/07/26 12:32:10;;;;;;;;;;;;;;;24.64;80.50;97893.63;5993920;23;19918;-93
2023/07/26 12:34:42;;;;;;;;;;;;;;;24.67;79.48;97887.94;6066492;23;19921;-92
2023/07/26 12:37:09;;;;;;;;;;;;;;;24.68;80.49;97892.28;6064368;23;19945;-90
2023/07/26 12:39:37;;;;;;;;;;;;;;;24.70;78.68;97884.25;6065181;23;20027;-92
2023/07/26 12:42:12;;;;;;;;;;;;;;;24.66;79.63;97877.97;5998332;23;19925;-92
2023/07/26 12:44:40;;;;;;;;;;;;;;;24.59;79.38;97878.94;6046066;23;19928;-91
2023/07/26 12:47:06;;;;;;;;;;;;;;;24.96;77.67;97873.13;6045030;23;19921;-91
2023/07/26 12:49:39;;;;;;;;;;;;;;;25.17;75.65;97874.53;6118792;23;19917;-92
2023/07/26 12:52:06;;;;;;;;;;;;;;;25.45;73.78;97868.03;6213592;22;19919;-93
2023/07/26 12:54:33;;;;;;;;;;;;;;;25.58;72.69;97872.84;6259436;22;19919;-92
2023/07/26 12:57:46;;;;;;;;;;;;;;;25.61;72.45;97867.13;6245396;22;19927;-90
2023/07/26 13:00:16;;;;;;;;;;;;;;;25.43;72.53;97858.50;6215148;22;19953;-89
2023/07/26 13:02:54;;;;;;;;;;;;;;;25.61;71.77;97869.13;6227734;22;19965;-89
2023/07/26 13:05:22;;;;;;;;;;;;;;;25.62;71.38;97865.88;6276900;22;19919;-91
2023/07/26 13:07:50;;;;;;;;;;;;;;;25.81;71.21;97869.69;6251031;22;19919;-90
2023/07/26 13:10:16;;;;;;;;;;;;;;;26.02;70.11;97863.34;6250550;22;19915;-93
2023/07/26 13:13:21;;;;;;;;;;;;;;;26.23;68.93;97861.06;6227931;22;19994;-94
2023/07/26 13:16:32;;;;;;;;;;;;;;;26.48;68.61;97849.75;6279485;22;19934;-95
2023/07/26 13:18:54;;;;;;;;;;;;;;;26.94;67.10;97855.66;6251690;22;19930;-93
2023/07/26 13:21:23;;;;;;;;;;;;;;;27.19;65.65;97851.16;6257164;22;19919;-92
2023/07/26 13:23:58;;;;;;;;;;;;;;;27.21;65.45;97854.25;6235367;22;19921;-93
2023/07/26 13:26:44;;;;;;;;;;;;;;;26.99;65.85;97853.47;6231452;22;20037;-93
2023/07/26 13:29:11;;;;;;;;;;;;;;;26.67;66.46;97858.31;6168609;23;19924;-92
2023/07/26 13:31:39;;;;;;;;;;;;;;;26.58;66.44;97856.22;6190281;23;20374;-94
2023/07/26 13:34:07;;;;;;;;;;;;;;;26.52;66.73;97858.03;6166333;23;19927;-94
2023/07/26 13:36:38;;;;;;;;;;;;;;;26.56;68.01;97858.69;6191350;23;19999;-93
2023/07/26 13:39:06;;;;;;;;;;;;;;;26.53;66.59;97847.63;6166285;23;19970;-92
2023/07/26 13:41:57;;;;;;;;;;;;;;;26.40;66.81;97859.63;6164730;23;19920;-92
2023/07/26 13:44:59;;;;;;;;;;;;;;;26.24;66.99;97854.22;6207979;22;20007;-93
2023/07/26 13:47:27;;;;;;;;;;;;;;;26.15;66.71;97865.34;6212844;22;19924;-92
2023/07/26 13:50:36;;;;;;;;;;;;;;;26.05;67.34;97864.47;6249232;23;20324;-92
2023/07/26 13:53:27;;;;;;;;;;;;;;;26.05;67.77;97856.06;6224723;23;20320;-93
2023/07/26 13:55:53;;;;;;;;;;;;;;;26.04;69.28;97860.13;6158685;23;19924;-88
2023/07/26 13:58:20;;;;;;;;;;;;;;;26.05;68.38;97860.88;6132643;23;20303;-91
2023/07/26 14:00:56;;;;;;;;;;;;;;;26.19;67.75;97863.19;6106320;23;19917;-92
2023/07/26 14:03:26;;;;;;;;;;;;;;;26.24;68.30;97869.00;6106307;23;20216;-89
2023/07/26 14:05:54;;;;;;;;;;;;;;;26.32;67.36;97872.31;6155981;22;20496;-93
2023/07/26 14:08:20;;;;;;;;;;;;;;;26.48;66.77;97872.16;6245932;22;20460;-91
2023/07/26 14:10:46;;;;;;;;;;;;;;;26.67;66.70;97858.31;6275456;22;19969;-90
2023/07/26 14:13:12;;;;;;;;;;;;;;;26.81;65.45;97868.97;6256689;22;19919;-88
2023/07/26 14:18:16;;;;;;;;;;;;;;;26.92;65.61;97877.78;6212184;23;20035;-88
2023/07/26 14:20:43;;;;;;;;;;;;;;;26.99;64.87;97875.91;6187870;23;19951;-91
2023/07/26 14:23:12;;;;;;;;;;;;;;;26.99;63.74;97879.53;6139497;23;19924;-88
2023/07/26 14:25:38;;;;;;;;;;;;;;;26.98;63.70;97894.00;6212592;23;19926;-90
2023/07/26 14:28:04;;;;;;;;;;;;;;;26.98;63.15;97885.59;6215291;23;19927;-88
2023/07/26 14:30:55;;;;;;;;;;;;;;;27.13;62.94;97892.25;6164894;23;19946;-89
2023/07/26 14:33:27;;;;;;;;;;;;;;;27.16;62.60;97891.34;6144056;23;19951;-89
2023/07/26 14:36:19;;;;;;;;;;;;;;;27.11;62.94;97894.69;6170251;22;19951;-91
2023/07/26 14:39:25;;;;;;;;;;;;;;;27.25;62.11;97890.59;6224522;22;19919;-90
2023/07/26 14:41:51;;;;;;;;;;;;;;;27.19;61.77;97893.22;6275832;22;19920;-90
2023/07/26 14:44:18;;;;;;;;;;;;;;;27.08;62.19;97890.78;6247783;22;19945;-90
2023/07/26 14:46:44;;;;;;;;;;;;;;;26.90;62.66;97888.66;6224136;22;19919;-91
2023/07/26 14:49:10;;;;;;;;;;;;;;;26.83;62.86;97888.94;6247182;22;20246;-91
2023/07/26 14:51:36;;;;;;;;;;;;;;;26.97;62.38;97879.19;6249133;22;19969;-91
2023/07/26 14:54:27;;;;;;;;;;;;;;;27.13;62.19;97881.03;6249154;22;20001;-90
2023/07/26 14:56:56;;;;;;;;;;;;;;;27.17;61.67;97878.88;6248187;22;20005;-92
2023/07/26 14:59:22;;;;;;;;;;;;;;;27.02;61.86;97880.63;6258182;22;19943;-90
2023/07/26 15:02:14;;;;;;;;;;;;;;;26.97;62.05;97870.78;6224428;22;19919;-91